createdAt,value
2023-01-25T00:02:23.452Z,1.8
2023-01-25T00:17:33.213Z,1.8
2023-01-25T00:33:01.295Z,1.8
2023-01-25T00:48:11.174Z,1.7
2023-01-25T01:03:20.282Z,1.6
2023-01-25T01:23:26.115Z,2.8
2023-01-25T01:38:38.091Z,1.9
2023-01-25T01:53:47.513Z,1.7
2023-01-25T02:08:57.739Z,1.5
2023-01-25T02:24:07.533Z,1.2
2023-01-25T02:39:19.131Z,1.1
2023-01-25T02:54:30.354Z,1.2
2023-01-25T03:09:39.693Z,1.3
2023-01-25T03:24:48.955Z,1.3
2023-01-25T03:39:58.437Z,1.3
2023-01-25T03:55:08.295Z,1.3
2023-01-25T04:10:19.742Z,1.2
2023-01-25T04:25:30.245Z,1.2
2023-01-25T04:40:41.278Z,1.2
2023-01-25T04:55:51.157Z,1.1
2023-01-25T05:11:00.775Z,1.2
2023-01-25T05:26:10.746Z,1
2023-01-25T05:41:19.818Z,1.1
2023-01-25T05:56:28.918Z,0.9
2023-01-25T06:11:39.059Z,0.9
2023-01-25T06:26:48.095Z,1
2023-01-25T06:41:57.826Z,1
2023-01-25T06:57:07.074Z,1
2023-01-25T07:12:16.157Z,1.1
2023-01-25T07:27:25.273Z,1
2023-01-25T07:42:34.771Z,1.1
2023-01-25T07:57:44.952Z,0.9
2023-01-25T08:12:53.189Z,1
2023-01-25T08:28:02.670Z,0.9
2023-01-25T08:43:12.600Z,1
2023-01-25T08:58:22.218Z,1.1
2023-01-25T09:13:31.698Z,1
2023-01-25T09:28:41.364Z,1
2023-01-25T09:43:50.971Z,0.9
2023-01-25T09:59:00.342Z,0.9
2023-01-25T10:14:09.821Z,0.9
2023-01-25T10:29:18.996Z,0.8
2023-01-25T10:44:28.690Z,0.9
2023-01-25T10:59:38.555Z,0.8
2023-01-25T11:14:47.873Z,0.8
2023-01-25T11:29:57.570Z,0.8
2023-01-25T11:45:07.468Z,0.8
2023-01-25T12:00:16.974Z,0.8
2023-01-25T12:15:26.586Z,0.9
2023-01-25T12:30:36.438Z,0.9
2023-01-25T12:45:48.068Z,1
2023-01-25T13:00:56.746Z,0.9
2023-01-25T13:16:07.178Z,1
2023-01-25T13:31:16.747Z,1
2023-01-25T13:46:26.883Z,1
2023-01-25T14:01:36.324Z,1
2023-01-25T14:16:45.845Z,0.9
2023-01-25T14:31:55.354Z,0.9
2023-01-25T14:47:05.351Z,1
2023-01-25T15:02:14.066Z,0.9
2023-01-25T15:17:24.135Z,0.9
2023-01-25T15:32:34.206Z,0.8
2023-01-25T15:47:45.913Z,0.7
2023-01-25T16:02:55.203Z,0.5
2023-01-25T16:18:03.417Z,0.4
2023-01-25T16:33:18.648Z,0.4
2023-01-25T16:48:28.231Z,0.3
2023-01-25T17:03:36.892Z,0.4
2023-01-25T17:18:46.870Z,0.3
2023-01-25T17:33:56.922Z,0.4
2023-01-25T17:49:07.012Z,0.4
2023-01-25T18:04:16.532Z,0.3
2023-01-25T18:19:25.852Z,0.1
2023-01-25T18:34:34.790Z,0.1
2023-01-25T18:49:46.068Z,0.2
2023-01-25T19:04:55.826Z,0.2
2023-01-25T19:20:05.916Z,0
2023-01-25T19:35:14.751Z,-0.2
2023-01-25T19:50:23.789Z,-0.4
2023-01-25T20:05:33.139Z,-0.5
2023-01-25T20:20:42.402Z,-0.4
2023-01-25T20:35:52.386Z,-0.2
2023-01-25T20:51:02.087Z,-0.2
2023-01-25T21:06:10.542Z,-0.6
2023-01-25T21:21:20.740Z,-0.6
2023-01-25T21:36:29.967Z,-0.8
2023-01-25T21:51:39.243Z,-0.8
2023-01-25T22:06:48.906Z,-0.9
2023-01-25T22:21:58.250Z,-0.8
2023-01-25T22:37:07.858Z,-0.8
2023-01-25T22:52:17.325Z,-0.9
2023-01-25T23:07:26.622Z,-0.8
2023-01-25T23:22:36.098Z,-0.7
2023-01-25T23:37:46.388Z,-0.6
2023-01-25T23:53:46.615Z,-0.5
